sensor_id;sensor_type;location;lat;lon;timestamp;P1;durP1;ratioP1;P2;durP2;ratioP2
55539;SDS011;41384;51.418;7.286;2023-02-04T00:00:39;16.42;;;3.53;;
55539;SDS011;41384;51.418;7.286;2023-02-04T00:03:05;23.60;;;3.42;;
55539;SDS011;41384;51.418;7.286;2023-02-04T00:05:30;14.73;;;2.67;;
55539;SDS011;41384;51.418;7.286;2023-02-04T00:07:55;20.50;;;3.08;;
55539;SDS011;41384;51.418;7.286;2023-02-04T00:10:21;15.30;;;3.08;;
55539;SDS011;41384;51.418;7.286;2023-02-04T00:12:47;22.92;;;3.65;;
55539;SDS011;41384;51.418;7.286;2023-02-04T00:15:12;20.05;;;3.15;;
55539;SDS011;41384;51.418;7.286;2023-02-04T00:17:37;17.50;;;2.78;;
55539;SDS011;41384;51.418;7.286;2023-02-04T00:20:03;16.58;;;2.78;;
55539;SDS011;41384;51.418;7.286;2023-02-04T00:22:29;15.90;;;3.10;;
55539;SDS011;41384;51.418;7.286;2023-02-04T00:24:54;20.02;;;3.22;;
55539;SDS011;41384;51.418;7.286;2023-02-04T00:27:20;16.70;;;2.88;;
55539;SDS011;41384;51.418;7.286;2023-02-04T00:29:45;13.18;;;2.75;;
55539;SDS011;41384;51.418;7.286;2023-02-04T00:32:11;17.35;;;3.22;;
55539;SDS011;41384;51.418;7.286;2023-02-04T00:34:36;14.70;;;2.97;;
55539;SDS011;41384;51.418;7.286;2023-02-04T00:37:01;19.02;;;2.80;;
55539;SDS011;41384;51.418;7.286;2023-02-04T00:39:27;13.07;;;2.65;;
55539;SDS011;41384;51.418;7.286;2023-02-04T00:41:52;22.83;;;3.40;;
55539;SDS011;41384;51.418;7.286;2023-02-04T00:44:17;14.52;;;2.80;;
55539;SDS011;41384;51.418;7.286;2023-02-04T00:46:43;23.48;;;3.65;;
55539;SDS011;41384;51.418;7.286;2023-02-04T00:49:09;14.55;;;3.20;;
55539;SDS011;41384;51.418;7.286;2023-02-04T00:51:38;16.05;;;3.35;;
55539;SDS011;41384;51.418;7.286;2023-02-04T00:54:04;15.75;;;3.13;;
55539;SDS011;41384;51.418;7.286;2023-02-04T00:56:30;19.05;;;3.28;;
55539;SDS011;41384;51.418;7.286;2023-02-04T00:58:56;17.73;;;2.78;;
55539;SDS011;41384;51.418;7.286;2023-02-04T01:01:21;22.13;;;3.17;;
55539;SDS011;41384;51.418;7.286;2023-02-04T01:03:46;18.75;;;3.75;;
55539;SDS011;41384;51.418;7.286;2023-02-04T01:06:11;21.00;;;3.10;;
55539;SDS011;41384;51.418;7.286;2023-02-04T01:08:37;16.98;;;3.45;;
55539;SDS011;41384;51.418;7.286;2023-02-04T01:11:02;16.95;;;2.92;;
55539;SDS011;41384;51.418;7.286;2023-02-04T01:13:27;18.50;;;3.40;;
55539;SDS011;41384;51.418;7.286;2023-02-04T01:15:53;21.17;;;3.45;;
55539;SDS011;41384;51.418;7.286;2023-02-04T01:18:18;16.08;;;2.95;;
55539;SDS011;41384;51.418;7.286;2023-02-04T01:20:43;21.27;;;3.10;;
55539;SDS011;41384;51.418;7.286;2023-02-04T01:23:08;14.90;;;3.08;;
55539;SDS011;41384;51.418;7.286;2023-02-04T01:25:34;15.82;;;3.15;;
55539;SDS011;41384;51.418;7.286;2023-02-04T01:27:59;13.90;;;2.67;;
55539;SDS011;41384;51.418;7.286;2023-02-04T01:30:24;16.02;;;3.30;;
55539;SDS011;41384;51.418;7.286;2023-02-04T01:32:49;15.75;;;3.33;;
55539;SDS011;41384;51.418;7.286;2023-02-04T01:35:15;21.33;;;3.50;;
55539;SDS011;41384;51.418;7.286;2023-02-04T01:37:40;15.55;;;3.20;;
55539;SDS011;41384;51.418;7.286;2023-02-04T01:40:06;17.35;;;3.17;;
55539;SDS011;41384;51.418;7.286;2023-02-04T01:42:32;15.88;;;3.28;;
55539;SDS011;41384;51.418;7.286;2023-02-04T01:44:58;22.75;;;3.03;;
55539;SDS011;41384;51.418;7.286;2023-02-04T01:47:23;14.07;;;3.15;;
55539;SDS011;41384;51.418;7.286;2023-02-04T01:49:50;18.88;;;2.92;;
55539;SDS011;41384;51.418;7.286;2023-02-04T01:52:18;17.40;;;3.03;;
55539;SDS011;41384;51.418;7.286;2023-02-04T01:54:44;21.20;;;3.65;;
55539;SDS011;41384;51.418;7.286;2023-02-04T01:57:09;16.05;;;2.58;;
55539;SDS011;41384;51.418;7.286;2023-02-04T01:59:39;16.05;;;2.90;;
55539;SDS011;41384;51.418;7.286;2023-02-04T02:05:05;19.08;;;3.45;;
55539;SDS011;41384;51.418;7.286;2023-02-04T02:07:31;17.35;;;2.90;;
55539;SDS011;41384;51.418;7.286;2023-02-04T02:09:57;20.63;;;3.20;;
55539;SDS011;41384;51.418;7.286;2023-02-04T02:12:22;15.38;;;2.63;;
55539;SDS011;41384;51.418;7.286;2023-02-04T02:14:47;14.75;;;2.92;;
55539;SDS011;41384;51.418;7.286;2023-02-04T02:17:13;14.45;;;3.13;;
55539;SDS011;41384;51.418;7.286;2023-02-04T02:19:38;21.42;;;3.17;;
55539;SDS011;41384;51.418;7.286;2023-02-04T02:22:10;20.25;;;3.83;;
55539;SDS011;41384;51.418;7.286;2023-02-04T02:24:40;15.77;;;3.22;;
55539;SDS011;41384;51.418;7.286;2023-02-04T02:27:06;15.35;;;3.70;;
55539;SDS011;41384;51.418;7.286;2023-02-04T02:29:37;14.05;;;3.13;;
55539;SDS011;41384;51.418;7.286;2023-02-04T02:32:05;17.95;;;3.40;;
55539;SDS011;41384;51.418;7.286;2023-02-04T02:34:31;21.98;;;3.00;;
55539;SDS011;41384;51.418;7.286;2023-02-04T02:43:08;19.55;;;3.25;;
55539;SDS011;41384;51.418;7.286;2023-02-04T02:45:37;15.35;;;2.95;;
55539;SDS011;41384;51.418;7.286;2023-02-04T02:48:02;16.15;;;3.10;;
55539;SDS011;41384;51.418;7.286;2023-02-04T02:50:28;14.95;;;2.90;;
55539;SDS011;41384;51.418;7.286;2023-02-04T02:52:56;14.90;;;3.38;;
55539;SDS011;41384;51.418;7.286;2023-02-04T02:55:25;17.67;;;2.58;;
55539;SDS011;41384;51.418;7.286;2023-02-04T02:57:52;15.52;;;3.42;;
55539;SDS011;41384;51.418;7.286;2023-02-04T03:02:51;21.83;;;3.40;;
55539;SDS011;41384;51.418;7.286;2023-02-04T03:05:21;18.23;;;3.08;;
55539;SDS011;41384;51.418;7.286;2023-02-04T03:07:48;18.98;;;3.38;;
55539;SDS011;41384;51.418;7.286;2023-02-04T03:10:14;18.15;;;3.45;;
55539;SDS011;41384;51.418;7.286;2023-02-04T03:12:41;20.65;;;3.15;;
55539;SDS011;41384;51.418;7.286;2023-02-04T03:15:06;19.42;;;3.55;;
55539;SDS011;41384;51.418;7.286;2023-02-04T03:17:32;24.25;;;3.28;;
55539;SDS011;41384;51.418;7.286;2023-02-04T03:19:58;19.83;;;3.20;;
55539;SDS011;41384;51.418;7.286;2023-02-04T03:22:24;17.02;;;3.40;;
55539;SDS011;41384;51.418;7.286;2023-02-04T03:24:49;19.10;;;3.10;;
55539;SDS011;41384;51.418;7.286;2023-02-04T03:27:14;19.58;;;3.60;;
55539;SDS011;41384;51.418;7.286;2023-02-04T03:29:41;21.90;;;3.33;;
55539;SDS011;41384;51.418;7.286;2023-02-04T03:32:08;17.65;;;2.85;;
55539;SDS011;41384;51.418;7.286;2023-02-04T03:34:33;13.88;;;2.95;;
55539;SDS011;41384;51.418;7.286;2023-02-04T03:36:58;22.10;;;4.05;;
55539;SDS011;41384;51.418;7.286;2023-02-04T03:39:23;18.73;;;3.10;;
55539;SDS011;41384;51.418;7.286;2023-02-04T03:41:49;20.35;;;2.83;;
55539;SDS011;41384;51.418;7.286;2023-02-04T03:44:14;11.27;;;2.38;;
55539;SDS011;41384;51.418;7.286;2023-02-04T03:46:39;18.25;;;3.38;;
55539;SDS011;41384;51.418;7.286;2023-02-04T03:49:04;12.18;;;2.75;;
55539;SDS011;41384;51.418;7.286;2023-02-04T03:51:30;17.02;;;3.10;;
55539;SDS011;41384;51.418;7.286;2023-02-04T03:53:55;26.08;;;4.07;;
55539;SDS011;41384;51.418;7.286;2023-02-04T03:56:20;18.48;;;3.25;;
55539;SDS011;41384;51.418;7.286;2023-02-04T03:58:45;19.30;;;3.00;;
55539;SDS011;41384;51.418;7.286;2023-02-04T04:01:11;22.52;;;3.63;;
55539;SDS011;41384;51.418;7.286;2023-02-04T04:03:36;17.88;;;3.55;;
55539;SDS011;41384;51.418;7.286;2023-02-04T04:06:01;16.05;;;3.30;;
55539;SDS011;41384;51.418;7.286;2023-02-04T04:08:29;20.33;;;3.70;;
55539;SDS011;41384;51.418;7.286;2023-02-04T04:10:54;15.32;;;3.03;;
55539;SDS011;41384;51.418;7.286;2023-02-04T04:13:19;15.88;;;3.08;;
55539;SDS011;41384;51.418;7.286;2023-02-04T04:15:45;19.65;;;3.13;;
55539;SDS011;41384;51.418;7.286;2023-02-04T04:18:10;17.60;;;3.05;;
55539;SDS011;41384;51.418;7.286;2023-02-04T04:20:35;19.05;;;3.28;;
55539;SDS011;41384;51.418;7.286;2023-02-04T04:23:00;15.75;;;3.13;;
55539;SDS011;41384;51.418;7.286;2023-02-04T04:25:26;16.52;;;2.75;;
55539;SDS011;41384;51.418;7.286;2023-02-04T04:27:51;19.00;;;3.15;;
55539;SDS011;41384;51.418;7.286;2023-02-04T04:30:16;19.67;;;3.58;;
55539;SDS011;41384;51.418;7.286;2023-02-04T04:32:42;22.02;;;3.40;;
55539;SDS011;41384;51.418;7.286;2023-02-04T04:35:07;21.85;;;2.95;;
55539;SDS011;41384;51.418;7.286;2023-02-04T04:37:33;14.82;;;3.13;;
55539;SDS011;41384;51.418;7.286;2023-02-04T04:39:59;20.42;;;3.58;;
55539;SDS011;41384;51.418;7.286;2023-02-04T04:42:25;16.77;;;2.97;;
55539;SDS011;41384;51.418;7.286;2023-02-04T04:44:50;26.30;;;3.28;;
55539;SDS011;41384;51.418;7.286;2023-02-04T04:47:16;13.65;;;3.13;;
55539;SDS011;41384;51.418;7.286;2023-02-04T04:49:41;21.15;;;3.65;;
55539;SDS011;41384;51.418;7.286;2023-02-04T04:52:06;20.02;;;3.20;;
55539;SDS011;41384;51.418;7.286;2023-02-04T04:54:31;15.43;;;3.40;;
55539;SDS011;41384;51.418;7.286;2023-02-04T04:56:57;18.13;;;2.83;;
55539;SDS011;41384;51.418;7.286;2023-02-04T04:59:22;21.55;;;3.03;;
55539;SDS011;41384;51.418;7.286;2023-02-04T05:01:47;21.77;;;3.72;;
55539;SDS011;41384;51.418;7.286;2023-02-04T05:04:12;21.15;;;3.60;;
55539;SDS011;41384;51.418;7.286;2023-02-04T05:06:38;18.55;;;3.03;;
55539;SDS011;41384;51.418;7.286;2023-02-04T05:09:03;22.20;;;3.40;;
55539;SDS011;41384;51.418;7.286;2023-02-04T05:11:28;11.05;;;2.80;;
55539;SDS011;41384;51.418;7.286;2023-02-04T05:13:53;22.48;;;3.47;;
55539;SDS011;41384;51.418;7.286;2023-02-04T05:16:19;14.88;;;2.90;;
55539;SDS011;41384;51.418;7.286;2023-02-04T05:18:44;22.23;;;3.35;;
55539;SDS011;41384;51.418;7.286;2023-02-04T05:21:09;19.30;;;3.00;;
55539;SDS011;41384;51.418;7.286;2023-02-04T05:23:35;23.00;;;2.95;;
55539;SDS011;41384;51.418;7.286;2023-02-04T05:26:00;20.05;;;3.40;;
55539;SDS011;41384;51.418;7.286;2023-02-04T05:28:25;22.55;;;3.63;;
55539;SDS011;41384;51.418;7.286;2023-02-04T05:30:50;33.83;;;4.07;;
55539;SDS011;41384;51.418;7.286;2023-02-04T05:33:16;22.60;;;3.33;;
55539;SDS011;41384;51.418;7.286;2023-02-04T05:35:41;16.63;;;3.47;;
55539;SDS011;41384;51.418;7.286;2023-02-04T05:38:06;25.50;;;3.70;;
55539;SDS011;41384;51.418;7.286;2023-02-04T05:40:32;16.25;;;3.50;;
55539;SDS011;41384;51.418;7.286;2023-02-04T05:42:57;20.27;;;3.25;;
55539;SDS011;41384;51.418;7.286;2023-02-04T05:45:22;19.63;;;3.20;;
55539;SDS011;41384;51.418;7.286;2023-02-04T05:47:47;18.92;;;3.25;;
55539;SDS011;41384;51.418;7.286;2023-02-04T05:50:13;18.92;;;2.75;;
55539;SDS011;41384;51.418;7.286;2023-02-04T05:52:38;19.05;;;3.20;;
55539;SDS011;41384;51.418;7.286;2023-02-04T05:55:04;16.00;;;3.03;;
55539;SDS011;41384;51.418;7.286;2023-02-04T05:57:30;23.13;;;4.10;;
55539;SDS011;41384;51.418;7.286;2023-02-04T05:59:55;24.23;;;3.40;;
55539;SDS011;41384;51.418;7.286;2023-02-04T06:02:21;15.82;;;3.05;;
55539;SDS011;41384;51.418;7.286;2023-02-04T06:04:46;18.08;;;2.85;;
55539;SDS011;41384;51.418;7.286;2023-02-04T06:07:11;25.80;;;3.72;;
55539;SDS011;41384;51.418;7.286;2023-02-04T06:09:36;14.55;;;2.85;;
55539;SDS011;41384;51.418;7.286;2023-02-04T06:12:02;25.00;;;3.50;;
55539;SDS011;41384;51.418;7.286;2023-02-04T06:14:27;22.55;;;3.63;;
55539;SDS011;41384;51.418;7.286;2023-02-04T06:16:52;21.55;;;3.40;;
55539;SDS011;41384;51.418;7.286;2023-02-04T06:19:18;22.80;;;3.17;;
55539;SDS011;41384;51.418;7.286;2023-02-04T06:21:43;25.38;;;3.58;;
55539;SDS011;41384;51.418;7.286;2023-02-04T06:24:08;14.75;;;3.33;;
55539;SDS011;41384;51.418;7.286;2023-02-04T06:26:34;23.05;;;3.58;;
55539;SDS011;41384;51.418;7.286;2023-02-04T06:28:59;20.65;;;3.22;;
55539;SDS011;41384;51.418;7.286;2023-02-04T06:31:24;15.70;;;3.20;;
55539;SDS011;41384;51.418;7.286;2023-02-04T06:33:50;13.85;;;2.88;;
55539;SDS011;41384;51.418;7.286;2023-02-04T06:36:15;17.38;;;3.00;;
55539;SDS011;41384;51.418;7.286;2023-02-04T06:38:40;18.45;;;3.58;;
55539;SDS011;41384;51.418;7.286;2023-02-04T06:41:05;16.77;;;2.70;;
55539;SDS011;41384;51.418;7.286;2023-02-04T06:43:31;15.13;;;3.38;;
55539;SDS011;41384;51.418;7.286;2023-02-04T06:45:56;23.83;;;3.70;;
55539;SDS011;41384;51.418;7.286;2023-02-04T06:48:21;20.27;;;4.43;;
55539;SDS011;41384;51.418;7.286;2023-02-04T06:50:46;23.33;;;3.97;;
55539;SDS011;41384;51.418;7.286;2023-02-04T06:53:12;18.52;;;3.00;;
55539;SDS011;41384;51.418;7.286;2023-02-04T06:55:37;22.73;;;3.50;;
55539;SDS011;41384;51.418;7.286;2023-02-04T06:58:03;33.70;;;4.53;;
55539;SDS011;41384;51.418;7.286;2023-02-04T07:00:28;28.00;;;3.60;;
55539;SDS011;41384;51.418;7.286;2023-02-04T07:02:55;18.63;;;3.40;;
55539;SDS011;41384;51.418;7.286;2023-02-04T07:05:21;27.73;;;3.33;;
55539;SDS011;41384;51.418;7.286;2023-02-04T07:07:47;19.95;;;3.78;;
55539;SDS011;41384;51.418;7.286;2023-02-04T07:10:12;16.55;;;3.60;;
55539;SDS011;41384;51.418;7.286;2023-02-04T07:12:38;20.80;;;3.38;;
55539;SDS011;41384;51.418;7.286;2023-02-04T07:15:03;13.98;;;2.75;;
55539;SDS011;41384;51.418;7.286;2023-02-04T07:17:28;20.52;;;3.17;;
55539;SDS011;41384;51.418;7.286;2023-02-04T07:19:54;18.25;;;3.22;;
55539;SDS011;41384;51.418;7.286;2023-02-04T07:22:19;22.10;;;3.92;;
55539;SDS011;41384;51.418;7.286;2023-02-04T07:24:44;22.35;;;3.38;;
55539;SDS011;41384;51.418;7.286;2023-02-04T07:27:10;23.63;;;3.83;;
55539;SDS011;41384;51.418;7.286;2023-02-04T07:29:35;27.83;;;3.30;;
55539;SDS011;41384;51.418;7.286;2023-02-04T07:32:00;15.70;;;3.25;;
55539;SDS011;41384;51.418;7.286;2023-02-04T07:34:26;13.88;;;2.97;;
55539;SDS011;41384;51.418;7.286;2023-02-04T07:36:51;18.95;;;3.72;;
55539;SDS011;41384;51.418;7.286;2023-02-04T07:39:16;20.30;;;2.92;;
55539;SDS011;41384;51.418;7.286;2023-02-04T07:41:41;20.98;;;3.50;;
55539;SDS011;41384;51.418;7.286;2023-02-04T07:44:07;14.35;;;3.10;;
55539;SDS011;41384;51.418;7.286;2023-02-04T07:46:32;19.35;;;4.28;;
55539;SDS011;41384;51.418;7.286;2023-02-04T07:48:57;21.27;;;3.55;;
55539;SDS011;41384;51.418;7.286;2023-02-04T07:51:22;18.88;;;2.90;;
55539;SDS011;41384;51.418;7.286;2023-02-04T07:53:48;17.70;;;2.92;;
55539;SDS011;41384;51.418;7.286;2023-02-04T07:56:13;22.85;;;4.03;;
55539;SDS011;41384;51.418;7.286;2023-02-04T07:58:38;16.42;;;3.40;;
55539;SDS011;41384;51.418;7.286;2023-02-04T08:01:04;18.75;;;3.42;;
55539;SDS011;41384;51.418;7.286;2023-02-04T08:03:29;21.90;;;3.03;;
55539;SDS011;41384;51.418;7.286;2023-02-04T08:05:54;13.73;;;3.10;;
55539;SDS011;41384;51.418;7.286;2023-02-04T08:08:20;18.50;;;3.05;;
55539;SDS011;41384;51.418;7.286;2023-02-04T08:10:45;25.10;;;4.13;;
55539;SDS011;41384;51.418;7.286;2023-02-04T08:13:10;16.65;;;3.88;;
55539;SDS011;41384;51.418;7.286;2023-02-04T08:15:36;19.50;;;3.53;;
55539;SDS011;41384;51.418;7.286;2023-02-04T08:18:01;22.13;;;3.60;;
55539;SDS011;41384;51.418;7.286;2023-02-04T08:20:26;20.55;;;4.00;;
55539;SDS011;41384;51.418;7.286;2023-02-04T08:22:52;14.45;;;3.40;;
55539;SDS011;41384;51.418;7.286;2023-02-04T08:25:17;22.27;;;3.92;;
55539;SDS011;41384;51.418;7.286;2023-02-04T08:27:43;22.85;;;3.72;;
55539;SDS011;41384;51.418;7.286;2023-02-04T08:30:08;22.80;;;3.50;;
55539;SDS011;41384;51.418;7.286;2023-02-04T08:32:34;20.25;;;4.18;;
55539;SDS011;41384;51.418;7.286;2023-02-04T08:35:00;22.33;;;3.75;;
55539;SDS011;41384;51.418;7.286;2023-02-04T08:37:25;21.42;;;4.25;;
55539;SDS011;41384;51.418;7.286;2023-02-04T08:39:51;22.52;;;3.65;;
55539;SDS011;41384;51.418;7.286;2023-02-04T08:42:16;20.15;;;4.07;;
55539;SDS011;41384;51.418;7.286;2023-02-04T08:44:41;19.63;;;3.33;;
55539;SDS011;41384;51.418;7.286;2023-02-04T08:47:07;25.38;;;3.92;;
55539;SDS011;41384;51.418;7.286;2023-02-04T08:49:33;25.65;;;4.60;;
55539;SDS011;41384;51.418;7.286;2023-02-04T08:51:59;20.13;;;3.65;;
55539;SDS011;41384;51.418;7.286;2023-02-04T08:54:26;18.00;;;3.47;;
55539;SDS011;41384;51.418;7.286;2023-02-04T08:56:52;22.33;;;3.83;;
55539;SDS011;41384;51.418;7.286;2023-02-04T08:59:17;20.77;;;4.00;;
55539;SDS011;41384;51.418;7.286;2023-02-04T09:01:42;27.77;;;4.05;;
55539;SDS011;41384;51.418;7.286;2023-02-04T09:04:11;19.55;;;3.90;;
55539;SDS011;41384;51.418;7.286;2023-02-04T09:06:36;19.65;;;3.28;;
55539;SDS011;41384;51.418;7.286;2023-02-04T09:09:02;19.13;;;3.65;;
55539;SDS011;41384;51.418;7.286;2023-02-04T09:11:27;24.05;;;4.07;;
55539;SDS011;41384;51.418;7.286;2023-02-04T09:13:52;27.70;;;4.20;;
55539;SDS011;41384;51.418;7.286;2023-02-04T09:16:19;20.23;;;3.78;;
55539;SDS011;41384;51.418;7.286;2023-02-04T09:18:44;21.27;;;3.17;;
55539;SDS011;41384;51.418;7.286;2023-02-04T09:21:10;23.23;;;3.97;;
55539;SDS011;41384;51.418;7.286;2023-02-04T09:23:35;22.85;;;4.13;;
55539;SDS011;41384;51.418;7.286;2023-02-04T09:26:00;22.27;;;3.83;;
55539;SDS011;41384;51.418;7.286;2023-02-04T09:28:28;19.33;;;4.05;;
55539;SDS011;41384;51.418;7.286;2023-02-04T09:30:53;21.35;;;4.07;;
55539;SDS011;41384;51.418;7.286;2023-02-04T09:33:18;23.30;;;4.18;;
55539;SDS011;41384;51.418;7.286;2023-02-04T09:35:44;24.42;;;4.30;;
55539;SDS011;41384;51.418;7.286;2023-02-04T09:38:09;21.85;;;4.00;;
55539;SDS011;41384;51.418;7.286;2023-02-04T09:40:36;21.42;;;3.38;;
55539;SDS011;41384;51.418;7.286;2023-02-04T09:43:05;23.58;;;4.13;;
55539;SDS011;41384;51.418;7.286;2023-02-04T09:45:34;24.02;;;4.30;;
55539;SDS011;41384;51.418;7.286;2023-02-04T09:48:01;17.75;;;4.22;;
55539;SDS011;41384;51.418;7.286;2023-02-04T09:50:29;18.30;;;3.90;;
55539;SDS011;41384;51.418;7.286;2023-02-04T09:53:02;24.35;;;4.10;;
55539;SDS011;41384;51.418;7.286;2023-02-04T09:55:31;23.55;;;4.07;;
55539;SDS011;41384;51.418;7.286;2023-02-04T09:57:59;22.05;;;4.57;;
55539;SDS011;41384;51.418;7.286;2023-02-04T10:00:26;19.58;;;4.32;;
55539;SDS011;41384;51.418;7.286;2023-02-04T10:02:53;26.00;;;4.00;;
55539;SDS011;41384;51.418;7.286;2023-02-04T10:05:23;22.40;;;3.42;;
55539;SDS011;41384;51.418;7.286;2023-02-04T10:07:52;25.85;;;4.60;;
55539;SDS011;41384;51.418;7.286;2023-02-04T10:10:19;18.05;;;3.67;;
55539;SDS011;41384;51.418;7.286;2023-02-04T10:12:46;23.80;;;4.35;;
55539;SDS011;41384;51.418;7.286;2023-02-04T10:15:14;26.58;;;4.78;;
55539;SDS011;41384;51.418;7.286;2023-02-04T10:17:43;20.08;;;4.38;;
55539;SDS011;41384;51.418;7.286;2023-02-04T10:20:13;23.55;;;4.53;;
55539;SDS011;41384;51.418;7.286;2023-02-04T10:22:39;24.08;;;5.10;;
55539;SDS011;41384;51.418;7.286;2023-02-04T10:25:14;19.02;;;4.22;;
55539;SDS011;41384;51.418;7.286;2023-02-04T10:27:51;30.77;;;5.30;;
55539;SDS011;41384;51.418;7.286;2023-02-04T10:30:23;24.38;;;4.03;;
55539;SDS011;41384;51.418;7.286;2023-02-04T10:32:51;24.00;;;4.00;;
55539;SDS011;41384;51.418;7.286;2023-02-04T10:35:17;25.08;;;4.30;;
55539;SDS011;41384;51.418;7.286;2023-02-04T10:37:44;23.90;;;5.43;;
55539;SDS011;41384;51.418;7.286;2023-02-04T10:42:58;28.45;;;4.35;;
55539;SDS011;41384;51.418;7.286;2023-02-04T10:45:30;32.08;;;5.40;;
55539;SDS011;41384;51.418;7.286;2023-02-04T10:47:56;23.38;;;4.38;;
55539;SDS011;41384;51.418;7.286;2023-02-04T10:50:23;30.80;;;4.90;;
55539;SDS011;41384;51.418;7.286;2023-02-04T10:52:50;25.15;;;5.00;;
55539;SDS011;41384;51.418;7.286;2023-02-04T10:55:19;28.80;;;5.47;;
55539;SDS011;41384;51.418;7.286;2023-02-04T10:57:47;29.98;;;5.75;;
55539;SDS011;41384;51.418;7.286;2023-02-04T11:00:17;27.13;;;5.32;;
55539;SDS011;41384;51.418;7.286;2023-02-04T11:03:27;21.25;;;4.90;;
55539;SDS011;41384;51.418;7.286;2023-02-04T11:05:39;20.95;;;4.70;;
55539;SDS011;41384;51.418;7.286;2023-02-04T11:08:23;20.17;;;5.07;;
55539;SDS011;41384;51.418;7.286;2023-02-04T11:10:54;42.90;;;7.65;;
55539;SDS011;41384;51.418;7.286;2023-02-04T11:13:26;19.05;;;4.82;;
55539;SDS011;41384;51.418;7.286;2023-02-04T11:21:22;45.03;;;6.38;;
55539;SDS011;41384;51.418;7.286;2023-02-04T11:26:41;26.88;;;5.53;;
55539;SDS011;41384;51.418;7.286;2023-02-04T11:39:41;28.02;;;5.60;;
55539;SDS011;41384;51.418;7.286;2023-02-04T11:44:59;24.05;;;6.00;;
55539;SDS011;41384;51.418;7.286;2023-02-04T11:47:32;21.75;;;6.07;;
55539;SDS011;41384;51.418;7.286;2023-02-04T11:50:00;27.00;;;6.57;;
55539;SDS011;41384;51.418;7.286;2023-02-04T11:52:34;19.90;;;5.82;;
55539;SDS011;41384;51.418;7.286;2023-02-04T11:54:59;26.45;;;6.50;;
55539;SDS011;41384;51.418;7.286;2023-02-04T11:57:25;24.23;;;6.50;;
55539;SDS011;41384;51.418;7.286;2023-02-04T11:59:51;27.10;;;7.70;;
55539;SDS011;41384;51.418;7.286;2023-02-04T12:02:18;26.00;;;6.72;;
55539;SDS011;41384;51.418;7.286;2023-02-04T12:04:49;37.22;;;8.57;;
55539;SDS011;41384;51.418;7.286;2023-02-04T12:07:20;24.50;;;6.68;;
55539;SDS011;41384;51.418;7.286;2023-02-04T12:09:48;27.42;;;7.18;;
55539;SDS011;41384;51.418;7.286;2023-02-04T12:12:21;30.48;;;7.70;;
55539;SDS011;41384;51.418;7.286;2023-02-04T12:14:54;25.85;;;8.43;;
55539;SDS011;41384;51.418;7.286;2023-02-04T12:17:21;40.85;;;7.68;;
55539;SDS011;41384;51.418;7.286;2023-02-04T12:19:46;29.30;;;7.75;;
55539;SDS011;41384;51.418;7.286;2023-02-04T12:22:11;57.40;;;9.15;;
55539;SDS011;41384;51.418;7.286;2023-02-04T12:24:38;30.55;;;7.05;;
55539;SDS011;41384;51.418;7.286;2023-02-04T12:27:03;33.28;;;7.40;;
55539;SDS011;41384;51.418;7.286;2023-02-04T12:29:29;35.47;;;7.97;;
55539;SDS011;41384;51.418;7.286;2023-02-04T12:31:54;30.05;;;7.60;;
55539;SDS011;41384;51.418;7.286;2023-02-04T12:34:19;21.75;;;6.85;;
55539;SDS011;41384;51.418;7.286;2023-02-04T12:36:45;25.70;;;7.20;;
55539;SDS011;41384;51.418;7.286;2023-02-04T12:39:10;34.28;;;7.05;;
55539;SDS011;41384;51.418;7.286;2023-02-04T12:41:35;25.52;;;6.40;;
55539;SDS011;41384;51.418;7.286;2023-02-04T12:44:01;21.77;;;6.57;;
55539;SDS011;41384;51.418;7.286;2023-02-04T12:46:27;27.65;;;6.93;;
55539;SDS011;41384;51.418;7.286;2023-02-04T12:48:53;26.90;;;6.80;;
55539;SDS011;41384;51.418;7.286;2023-02-04T12:51:18;30.67;;;7.50;;
55539;SDS011;41384;51.418;7.286;2023-02-04T12:53:45;18.80;;;7.15;;
55539;SDS011;41384;51.418;7.286;2023-02-04T12:56:11;22.83;;;6.80;;
55539;SDS011;41384;51.418;7.286;2023-02-04T12:58:36;26.25;;;7.38;;
55539;SDS011;41384;51.418;7.286;2023-02-04T13:01:01;24.00;;;7.13;;
55539;SDS011;41384;51.418;7.286;2023-02-04T13:03:26;25.45;;;6.97;;
55539;SDS011;41384;51.418;7.286;2023-02-04T13:05:52;22.52;;;7.32;;
55539;SDS011;41384;51.418;7.286;2023-02-04T13:08:17;19.23;;;6.93;;
55539;SDS011;41384;51.418;7.286;2023-02-04T13:10:42;26.58;;;7.10;;
55539;SDS011;41384;51.418;7.286;2023-02-04T13:13:08;18.63;;;6.88;;
55539;SDS011;41384;51.418;7.286;2023-02-04T13:15:33;22.33;;;7.28;;
55539;SDS011;41384;51.418;7.286;2023-02-04T13:17:58;22.65;;;6.47;;
55539;SDS011;41384;51.418;7.286;2023-02-04T13:20:23;25.30;;;7.43;;
55539;SDS011;41384;51.418;7.286;2023-02-04T13:22:49;22.25;;;6.75;;
55539;SDS011;41384;51.418;7.286;2023-02-04T13:25:14;23.30;;;6.07;;
55539;SDS011;41384;51.418;7.286;2023-02-04T13:27:39;27.05;;;7.00;;
55539;SDS011;41384;51.418;7.286;2023-02-04T13:30:06;21.70;;;6.47;;
55539;SDS011;41384;51.418;7.286;2023-02-04T13:32:32;21.48;;;6.20;;
55539;SDS011;41384;51.418;7.286;2023-02-04T13:34:58;22.30;;;6.10;;
55539;SDS011;41384;51.418;7.286;2023-02-04T13:37:23;22.50;;;6.95;;
55539;SDS011;41384;51.418;7.286;2023-02-04T13:39:48;25.55;;;6.68;;
55539;SDS011;41384;51.418;7.286;2023-02-04T13:42:13;22.25;;;6.82;;
55539;SDS011;41384;51.418;7.286;2023-02-04T13:44:39;22.23;;;6.65;;
55539;SDS011;41384;51.418;7.286;2023-02-04T13:47:04;21.33;;;6.70;;
55539;SDS011;41384;51.418;7.286;2023-02-04T13:49:30;22.48;;;6.25;;
55539;SDS011;41384;51.418;7.286;2023-02-04T13:51:55;19.48;;;6.28;;
55539;SDS011;41384;51.418;7.286;2023-02-04T13:54:20;21.92;;;6.15;;
55539;SDS011;41384;51.418;7.286;2023-02-04T13:56:45;23.10;;;6.50;;
55539;SDS011;41384;51.418;7.286;2023-02-04T13:59:11;20.73;;;6.80;;
55539;SDS011;41384;51.418;7.286;2023-02-04T14:01:36;21.60;;;6.35;;
55539;SDS011;41384;51.418;7.286;2023-02-04T14:04:02;20.58;;;6.32;;
55539;SDS011;41384;51.418;7.286;2023-02-04T14:06:27;70.03;;;10.55;;
55539;SDS011;41384;51.418;7.286;2023-02-04T14:09:00;19.15;;;5.88;;
55539;SDS011;41384;51.418;7.286;2023-02-04T14:11:26;44.40;;;7.55;;
55539;SDS011;41384;51.418;7.286;2023-02-04T14:13:51;29.42;;;7.20;;
55539;SDS011;41384;51.418;7.286;2023-02-04T14:16:17;26.05;;;6.15;;
55539;SDS011;41384;51.418;7.286;2023-02-04T14:18:42;19.83;;;6.15;;
55539;SDS011;41384;51.418;7.286;2023-02-04T14:21:07;23.33;;;5.78;;
55539;SDS011;41384;51.418;7.286;2023-02-04T14:23:32;28.95;;;6.80;;
55539;SDS011;41384;51.418;7.286;2023-02-04T14:25:58;28.42;;;6.68;;
55539;SDS011;41384;51.418;7.286;2023-02-04T14:28:23;27.67;;;5.60;;
55539;SDS011;41384;51.418;7.286;2023-02-04T14:30:48;16.50;;;5.88;;
55539;SDS011;41384;51.418;7.286;2023-02-04T14:33:14;21.67;;;6.63;;
55539;SDS011;41384;51.418;7.286;2023-02-04T14:35:42;21.48;;;6.25;;
55539;SDS011;41384;51.418;7.286;2023-02-04T14:38:07;21.17;;;6.28;;
55539;SDS011;41384;51.418;7.286;2023-02-04T14:40:33;33.45;;;7.75;;
55539;SDS011;41384;51.418;7.286;2023-02-04T14:42:58;16.65;;;6.13;;
55539;SDS011;41384;51.418;7.286;2023-02-04T14:45:23;25.65;;;6.63;;
55539;SDS011;41384;51.418;7.286;2023-02-04T14:47:48;19.67;;;5.95;;
55539;SDS011;41384;51.418;7.286;2023-02-04T14:50:15;18.25;;;6.70;;
55539;SDS011;41384;51.418;7.286;2023-02-04T14:52:41;23.33;;;6.55;;
55539;SDS011;41384;51.418;7.286;2023-02-04T14:55:06;26.48;;;7.13;;
55539;SDS011;41384;51.418;7.286;2023-02-04T14:57:34;18.27;;;6.47;;
55539;SDS011;41384;51.418;7.286;2023-02-04T14:59:59;21.60;;;7.22;;
55539;SDS011;41384;51.418;7.286;2023-02-04T15:02:24;22.15;;;6.70;;